createdAt,value
2018-05-09T00:02:00.434Z,41.50
2018-05-09T00:04:28.754Z,41.60
2018-05-09T00:06:57.126Z,41.30
2018-05-09T00:09:25.559Z,41.50
2018-05-09T00:11:53.913Z,42.10
2018-05-09T00:14:22.389Z,42.00
2018-05-09T00:16:50.863Z,42.50
2018-05-09T00:19:19.240Z,42.30
2018-05-09T00:21:47.575Z,42.00
2018-05-09T00:24:16.635Z,42.20
2018-05-09T00:26:44.989Z,42.20
2018-05-09T00:29:13.393Z,42.30
2018-05-09T00:31:41.859Z,42.40
2018-05-09T00:34:10.351Z,42.50
2018-05-09T00:36:38.777Z,42.50
2018-05-09T00:39:07.960Z,42.70
2018-05-09T00:41:36.285Z,42.70
2018-05-09T00:44:05.329Z,42.80
2018-05-09T00:46:33.636Z,42.70
2018-05-09T00:49:01.927Z,42.40
2018-05-09T00:51:30.226Z,43.20
2018-05-09T00:57:06.733Z,43.30
2018-05-09T00:59:35.266Z,43.80
2018-05-09T01:02:03.510Z,44.00
2018-05-09T01:04:32.542Z,43.80
2018-05-09T01:07:00.825Z,43.60
2018-05-09T01:09:29.531Z,44.10
2018-05-09T01:11:57.872Z,44.30
2018-05-09T01:14:26.136Z,44.40
2018-05-09T01:16:55.283Z,44.50
2018-05-09T01:19:24.421Z,44.50
2018-05-09T01:21:52.800Z,44.80
2018-05-09T01:24:22.010Z,44.90
2018-05-09T01:26:51.157Z,45.00
2018-05-09T01:29:19.431Z,45.00
2018-05-09T01:31:47.775Z,44.90
2018-05-09T01:34:16.237Z,45.10
2018-05-09T01:36:44.610Z,45.50
2018-05-09T01:39:13.696Z,45.60
2018-05-09T01:41:42.025Z,45.60
2018-05-09T01:44:10.346Z,45.70
2018-05-09T01:46:38.777Z,45.30
2018-05-09T01:49:07.067Z,45.60
2018-05-09T01:51:35.665Z,45.40
2018-05-09T01:54:03.963Z,45.60
2018-05-09T01:56:32.281Z,45.50
2018-05-09T01:59:00.561Z,46.30
2018-05-09T02:01:28.876Z,46.40
2018-05-09T02:03:57.140Z,46.10
2018-05-09T02:06:25.441Z,46.20
2018-05-09T02:08:55.332Z,46.00
2018-05-09T02:11:23.576Z,45.90
2018-05-09T02:13:51.872Z,46.30
2018-05-09T02:16:20.165Z,46.20
2018-05-09T02:18:48.440Z,46.60
2018-05-09T02:21:16.740Z,46.30
2018-05-09T02:23:45.046Z,47.30
2018-05-09T02:26:13.415Z,46.60
2018-05-09T02:28:42.493Z,46.90
2018-05-09T02:31:10.969Z,46.90
2018-05-09T02:33:39.573Z,47.00
2018-05-09T02:36:08.021Z,46.50
2018-05-09T02:38:36.410Z,47.00
2018-05-09T02:41:04.708Z,46.70
2018-05-09T02:43:33.811Z,47.50
2018-05-09T02:46:02.163Z,47.50
2018-05-09T02:48:32.056Z,47.70
2018-05-09T02:51:00.462Z,47.70
2018-05-09T02:53:28.761Z,47.80
2018-05-09T02:55:57.092Z,47.90
2018-05-09T02:58:25.357Z,47.70
2018-05-09T03:00:53.694Z,47.60
2018-05-09T03:03:21.998Z,48.00
2018-05-09T03:05:50.503Z,47.80
2018-05-09T03:08:18.813Z,48.20
2018-05-09T03:10:47.876Z,49.00
2018-05-09T03:13:16.257Z,49.00
2018-05-09T03:15:44.516Z,48.60
2018-05-09T03:18:14.533Z,48.40
2018-05-09T03:20:42.815Z,49.10
2018-05-09T03:23:11.138Z,48.40
2018-05-09T03:25:40.330Z,48.40
2018-05-09T03:28:09.406Z,48.30
2018-05-09T03:30:37.735Z,48.40
2018-05-09T03:33:06.128Z,48.00
2018-05-09T03:35:34.460Z,48.40
2018-05-09T03:38:03.585Z,48.50
2018-05-09T03:40:31.990Z,48.40
2018-05-09T03:43:00.483Z,48.30
2018-05-09T03:45:29.090Z,48.30
2018-05-09T03:47:57.965Z,49.30
2018-05-09T03:50:27.102Z,49.20
2018-05-09T03:52:55.802Z,49.40
2018-05-09T03:55:24.106Z,49.90
2018-05-09T03:57:52.698Z,49.80
2018-05-09T04:00:21.101Z,49.60
2018-05-09T04:03:07.934Z,49.50
2018-05-09T04:05:54.954Z,49.60
2018-05-09T04:08:41.006Z,49.60
2018-05-09T04:11:09.348Z,49.30
2018-05-09T04:13:37.762Z,49.70
2018-05-09T04:16:07.193Z,49.20
2018-05-09T04:18:36.304Z,49.10
2018-05-09T04:21:04.632Z,49.10
2018-05-09T04:23:32.908Z,49.20
2018-05-09T04:26:01.252Z,49.70
2018-05-09T04:28:29.514Z,49.40
2018-05-09T04:30:57.892Z,49.50
2018-05-09T04:33:26.215Z,49.70
2018-05-09T04:35:54.617Z,49.70
2018-05-09T04:38:23.838Z,50.10
2018-05-09T04:40:53.013Z,50.20
2018-05-09T04:43:21.680Z,50.20
2018-05-09T04:45:50.079Z,50.90
2018-05-09T04:48:18.461Z,50.20
2018-05-09T04:50:46.716Z,50.50
2018-05-09T04:53:15.269Z,50.50
2018-05-09T04:55:43.797Z,50.60
2018-05-09T04:58:12.152Z,50.50
2018-05-09T05:00:40.422Z,50.20
2018-05-09T05:03:08.850Z,50.60
2018-05-09T05:05:37.983Z,50.40
2018-05-09T05:08:06.415Z,50.40
2018-05-09T05:10:35.487Z,50.50
2018-05-09T05:13:04.944Z,50.40
2018-05-09T05:15:33.666Z,50.80
2018-05-09T05:18:01.982Z,50.90
2018-05-09T05:20:31.057Z,51.00
2018-05-09T05:22:59.336Z,51.00
2018-05-09T05:25:27.656Z,51.20
2018-05-09T05:27:56.032Z,51.00
2018-05-09T05:30:24.377Z,51.00
2018-05-09T05:32:52.772Z,50.80
2018-05-09T05:35:21.111Z,51.10
2018-05-09T05:37:49.550Z,51.60
2018-05-09T05:40:18.086Z,51.80
2018-05-09T05:42:47.821Z,52.20
2018-05-09T05:45:17.023Z,52.10
2018-05-09T05:47:45.988Z,52.30
2018-05-09T05:50:14.531Z,52.30
2018-05-09T05:52:42.910Z,52.50
2018-05-09T05:55:11.431Z,52.70
2018-05-09T05:57:39.895Z,52.40
2018-05-09T06:00:08.207Z,52.40
2018-05-09T06:02:37.258Z,51.20
2018-05-09T06:05:05.574Z,51.10
2018-05-09T06:07:34.641Z,49.60
2018-05-09T06:10:02.958Z,49.60
2018-05-09T06:12:31.241Z,48.80
2018-05-09T06:14:59.563Z,48.90
2018-05-09T06:17:27.849Z,48.80
2018-05-09T06:19:56.168Z,48.40
2018-05-09T06:22:25.329Z,47.60
2018-05-09T06:24:53.682Z,47.50
2018-05-09T06:27:22.195Z,46.50
2018-05-09T06:29:50.637Z,46.30
2018-05-09T06:32:18.995Z,46.00
2018-05-09T06:34:47.505Z,46.20
2018-05-09T06:37:15.798Z,44.70
2018-05-09T06:39:44.322Z,44.50
2018-05-09T06:42:12.847Z,44.10
2018-05-09T06:44:42.187Z,43.60
2018-05-09T06:47:10.501Z,43.50
2018-05-09T06:49:38.823Z,43.30
2018-05-09T06:52:07.184Z,43.10
2018-05-09T06:54:35.676Z,43.30
2018-05-09T06:57:03.991Z,42.90
2018-05-09T06:59:33.195Z,42.60
2018-05-09T07:02:01.635Z,42.40
2018-05-09T07:04:29.988Z,42.20
2018-05-09T07:06:58.362Z,42.10
2018-05-09T07:09:26.770Z,42.20
2018-05-09T07:11:55.907Z,40.50
2018-05-09T07:14:26.331Z,39.10
2018-05-09T07:16:55.428Z,39.10
2018-05-09T07:19:23.724Z,39.10
2018-05-09T07:21:52.033Z,39.00
2018-05-09T07:24:20.372Z,38.10
2018-05-09T07:26:48.911Z,37.60
2018-05-09T07:29:18.326Z,37.20
2018-05-09T07:31:46.727Z,37.10
2018-05-09T07:34:15.074Z,37.00
2018-05-09T07:36:43.392Z,37.50
2018-05-09T07:39:11.726Z,37.40
2018-05-09T07:41:40.065Z,36.60
2018-05-09T07:44:08.582Z,36.90
2018-05-09T07:46:37.079Z,37.00
2018-05-09T07:49:05.462Z,36.00
2018-05-09T07:51:34.594Z,36.70
2018-05-09T07:54:03.063Z,36.60
2018-05-09T07:56:31.372Z,35.60
2018-05-09T07:58:59.682Z,35.70
2018-05-09T08:01:28.073Z,35.40
2018-05-09T08:03:57.178Z,34.90
2018-05-09T08:06:26.244Z,34.30
2018-05-09T08:08:54.858Z,34.20
2018-05-09T08:11:24.083Z,34.70
2018-05-09T08:13:52.379Z,34.70
2018-05-09T08:16:22.159Z,35.00
2018-05-09T08:18:50.466Z,35.00
2018-05-09T08:21:18.805Z,33.60
2018-05-09T08:23:47.613Z,32.90
2018-05-09T08:26:15.964Z,32.60
2018-05-09T08:28:45.073Z,33.70
2018-05-09T08:31:13.406Z,33.60
2018-05-09T08:33:41.833Z,32.10
2018-05-09T08:36:10.136Z,33.50
2018-05-09T08:38:38.496Z,31.90
2018-05-09T08:41:06.777Z,32.10
2018-05-09T08:43:35.292Z,31.40
2018-05-09T08:46:03.562Z,30.30
2018-05-09T08:48:31.959Z,31.80
2018-05-09T08:51:00.355Z,32.30
2018-05-09T08:53:29.534Z,32.10
2018-05-09T08:55:57.943Z,32.10
2018-05-09T08:58:26.410Z,33.60
2018-05-09T09:00:55.534Z,32.50
2018-05-09T09:03:23.845Z,32.50
2018-05-09T09:05:52.140Z,32.00
2018-05-09T09:08:20.599Z,32.30
2018-05-09T09:10:49.025Z,31.50
2018-05-09T09:13:17.382Z,31.50
2018-05-09T09:15:45.710Z,32.30
2018-05-09T09:18:14.800Z,31.70
2018-05-09T09:20:43.163Z,31.70
2018-05-09T09:23:12.245Z,29.90
2018-05-09T09:25:41.492Z,29.70
2018-05-09T09:28:09.964Z,29.70
2018-05-09T09:30:38.244Z,29.40
2018-05-09T09:33:06.543Z,29.00
2018-05-09T09:35:34.795Z,29.60
2018-05-09T09:38:03.134Z,29.20
2018-05-09T09:40:31.647Z,28.00
2018-05-09T09:43:01.174Z,29.10
2018-05-09T09:45:29.450Z,29.50
2018-05-09T09:47:57.788Z,29.10
2018-05-09T09:50:26.257Z,29.10
2018-05-09T09:52:55.319Z,28.70
2018-05-09T09:55:23.624Z,28.80
2018-05-09T09:57:52.028Z,28.30
2018-05-09T10:00:24.914Z,28.10
2018-05-09T10:02:53.305Z,27.90
2018-05-09T10:05:21.604Z,28.60
2018-05-09T10:07:49.883Z,28.50
2018-05-09T10:10:19.148Z,31.30
2018-05-09T10:12:47.484Z,31.40
2018-05-09T10:15:15.817Z,32.00
2018-05-09T10:17:45.348Z,32.00
2018-05-09T10:20:13.680Z,32.80
2018-05-09T10:22:41.966Z,32.00
2018-05-09T10:25:10.282Z,33.10
2018-05-09T10:27:39.399Z,32.60
2018-05-09T10:30:07.904Z,32.60
2018-05-09T10:32:36.215Z,31.90
2018-05-09T10:35:04.773Z,31.50
2018-05-09T10:37:33.239Z,31.50
2018-05-09T10:40:01.571Z,33.60
2018-05-09T10:42:29.879Z,34.80
2018-05-09T10:44:59.079Z,33.90
2018-05-09T10:47:28.648Z,33.00
2018-05-09T10:49:58.785Z,33.40
2018-05-09T10:52:27.116Z,34.20
2018-05-09T10:54:55.428Z,33.50
2018-05-09T10:57:23.749Z,32.60
2018-05-09T10:59:52.236Z,31.60
2018-05-09T11:02:20.569Z,33.40
2018-05-09T11:04:48.988Z,32.60
2018-05-09T11:07:17.278Z,31.80
2018-05-09T11:09:45.583Z,31.10
2018-05-09T11:12:13.868Z,31.10
2018-05-09T11:14:42.238Z,30.20
2018-05-09T11:17:10.724Z,30.00
2018-05-09T11:19:40.873Z,30.00
2018-05-09T11:22:09.148Z,30.00
2018-05-09T11:24:37.708Z,30.30
2018-05-09T11:27:06.776Z,28.40
2018-05-09T11:29:35.184Z,28.40
2018-05-09T11:32:03.520Z,29.20
2018-05-09T11:34:31.988Z,29.00
2018-05-09T11:37:00.560Z,28.30
2018-05-09T11:39:28.904Z,28.60
2018-05-09T11:41:57.485Z,28.50
2018-05-09T11:44:25.772Z,28.20
2018-05-09T11:46:54.090Z,29.50
2018-05-09T11:49:23.793Z,27.90
2018-05-09T11:51:52.298Z,28.00
2018-05-09T11:54:20.693Z,28.70
2018-05-09T11:56:48.987Z,29.10
2018-05-09T11:59:17.304Z,29.50
2018-05-09T12:01:45.666Z,29.50
2018-05-09T12:04:14.791Z,30.00
2018-05-09T12:06:43.123Z,30.00
2018-05-09T12:09:11.426Z,30.30
2018-05-09T12:11:40.569Z,29.60
2018-05-09T12:14:08.985Z,29.60
2018-05-09T12:16:38.090Z,29.50
2018-05-09T12:19:07.161Z,30.00
2018-05-09T12:21:37.026Z,30.60
2018-05-09T12:24:05.380Z,30.50
2018-05-09T12:26:34.536Z,28.80
2018-05-09T12:29:02.964Z,28.80
2018-05-09T12:31:31.266Z,28.40
2018-05-09T12:33:59.581Z,28.20
2018-05-09T12:36:27.931Z,27.90
2018-05-09T12:38:56.299Z,27.90
2018-05-09T12:41:24.765Z,27.70
2018-05-09T12:43:53.265Z,28.00
2018-05-09T12:46:21.649Z,27.90
2018-05-09T12:48:50.099Z,27.80
2018-05-09T12:51:18.599Z,27.50
2018-05-09T12:53:46.963Z,27.20
2018-05-09T12:56:15.594Z,26.80
2018-05-09T12:58:43.929Z,26.90
2018-05-09T13:01:12.256Z,27.10
2018-05-09T13:03:40.625Z,26.40
2018-05-09T13:06:09.178Z,26.20
2018-05-09T13:08:39.299Z,26.20
2018-05-09T13:11:07.673Z,26.50
2018-05-09T13:13:36.075Z,26.60
2018-05-09T13:16:04.509Z,26.60
2018-05-09T13:18:33.800Z,25.90
2018-05-09T13:21:02.968Z,26.20
2018-05-09T13:23:32.950Z,25.60
2018-05-09T13:26:01.275Z,25.60
2018-05-09T13:28:29.623Z,25.90
2018-05-09T13:30:57.986Z,25.80
2018-05-09T13:33:26.338Z,26.10
2018-05-09T13:35:54.929Z,26.30
2018-05-09T13:38:23.420Z,26.50
2018-05-09T13:40:51.899Z,26.90
2018-05-09T13:43:20.236Z,28.00
2018-05-09T13:45:49.430Z,26.90
2018-05-09T13:48:18.053Z,26.90
2018-05-09T13:50:46.339Z,28.10
2018-05-09T13:53:14.861Z,27.60
2018-05-09T13:55:43.190Z,26.80
2018-05-09T13:58:11.613Z,26.60
2018-05-09T14:00:40.755Z,27.10
2018-05-09T14:03:09.116Z,27.10
2018-05-09T14:05:37.473Z,27.50
2018-05-09T14:08:05.875Z,26.50
2018-05-09T14:10:34.280Z,26.40
2018-05-09T14:13:02.941Z,26.20
2018-05-09T14:15:31.335Z,26.40
2018-05-09T14:18:00.430Z,25.00
2018-05-09T14:20:28.777Z,24.90
2018-05-09T14:22:59.006Z,24.70
2018-05-09T14:25:28.141Z,24.90
2018-05-09T14:27:56.444Z,24.90
2018-05-09T14:30:24.790Z,25.10
2018-05-09T14:32:53.205Z,25.40
2018-05-09T14:35:21.710Z,26.10
2018-05-09T14:37:51.020Z,26.40
2018-05-09T14:40:19.504Z,26.40
2018-05-09T14:42:47.842Z,26.70
2018-05-09T14:45:17.050Z,27.30
2018-05-09T14:47:46.253Z,27.70
2018-05-09T14:50:15.346Z,27.80
2018-05-09T14:52:44.552Z,27.80
2018-05-09T14:55:13.799Z,28.10
2018-05-09T14:57:42.986Z,28.10
2018-05-09T15:00:11.452Z,28.30
2018-05-09T15:02:39.990Z,28.30
2018-05-09T15:05:08.712Z,28.70
2018-05-09T15:07:37.084Z,28.50
2018-05-09T15:10:05.541Z,28.50
2018-05-09T15:12:34.680Z,28.30
2018-05-09T15:15:03.035Z,28.30
2018-05-09T15:17:31.334Z,28.40
2018-05-09T15:19:59.715Z,28.20
2018-05-09T15:22:28.265Z,28.50
2018-05-09T15:24:56.590Z,28.30
2018-05-09T15:27:26.270Z,29.30
2018-05-09T15:29:54.679Z,28.80
2018-05-09T15:32:23.076Z,29.20
2018-05-09T15:34:51.436Z,29.10
2018-05-09T15:37:19.826Z,28.90
2018-05-09T15:39:48.928Z,29.00
2018-05-09T15:42:17.254Z,29.00
2018-05-09T15:44:45.663Z,29.50
2018-05-09T15:47:13.985Z,28.90
2018-05-09T15:49:43.111Z,28.00
2018-05-09T15:52:11.431Z,28.00
2018-05-09T15:54:39.786Z,27.50
2018-05-09T15:57:08.238Z,27.00
2018-05-09T15:59:36.861Z,27.50
2018-05-09T16:02:05.370Z,27.80
2018-05-09T16:04:34.516Z,27.70
2018-05-09T16:07:02.881Z,27.70
2018-05-09T16:09:31.269Z,27.70
2018-05-09T16:11:59.726Z,28.20
2018-05-09T16:14:28.532Z,28.10
2018-05-09T16:16:57.063Z,28.50
2018-05-09T16:19:25.691Z,28.30
2018-05-09T16:21:54.054Z,28.10
2018-05-09T16:24:22.420Z,28.10
2018-05-09T16:26:51.544Z,27.20
2018-05-09T16:29:19.936Z,27.20
2018-05-09T16:31:48.386Z,26.20
2018-05-09T16:34:16.740Z,25.40
2018-05-09T16:36:45.121Z,25.50
2018-05-09T16:39:13.476Z,25.20
2018-05-09T16:41:42.045Z,24.70
2018-05-09T16:44:10.361Z,23.70
2018-05-09T16:46:39.575Z,23.10
2018-05-09T16:49:07.926Z,23.10
2018-05-09T16:51:36.246Z,23.10
2018-05-09T16:54:04.601Z,23.50
2018-05-09T16:56:32.988Z,23.50
2018-05-09T16:59:01.496Z,23.00
2018-05-09T17:01:29.917Z,23.00
2018-05-09T17:03:58.242Z,22.50
2018-05-09T17:06:26.632Z,22.30
2018-05-09T17:08:55.140Z,22.20
2018-05-09T17:11:23.782Z,22.20
2018-05-09T17:13:52.132Z,21.90
2018-05-09T17:16:20.462Z,22.00
2018-05-09T17:18:48.802Z,21.60
2018-05-09T17:21:35.216Z,21.90
2018-05-09T17:24:03.521Z,21.90
2018-05-09T17:26:32.057Z,22.70
2018-05-09T17:29:00.420Z,23.90
2018-05-09T17:31:29.516Z,25.90
2018-05-09T17:33:58.743Z,26.50
2018-05-09T17:36:27.062Z,26.50
2018-05-09T17:38:55.362Z,27.10
2018-05-09T17:41:23.971Z,27.70
2018-05-09T17:43:52.545Z,28.10
2018-05-09T17:46:20.892Z,28.50
2018-05-09T17:48:50.047Z,29.20
2018-05-09T17:51:18.397Z,29.20
2018-05-09T17:53:46.784Z,29.70
2018-05-09T17:56:16.366Z,31.10
2018-05-09T17:58:44.853Z,31.10
2018-05-09T18:01:13.331Z,31.20
2018-05-09T18:03:41.710Z,31.50
2018-05-09T18:06:10.068Z,31.80
2018-05-09T18:08:38.661Z,31.50
2018-05-09T18:11:07.098Z,32.20
2018-05-09T18:13:37.033Z,32.60
2018-05-09T18:16:06.443Z,32.80
2018-05-09T18:18:35.760Z,33.40
2018-05-09T18:21:04.152Z,33.40
2018-05-09T18:23:32.480Z,33.70
2018-05-09T18:26:01.621Z,34.00
2018-05-09T18:28:30.062Z,34.00
2018-05-09T18:30:59.388Z,35.10
2018-05-09T18:33:28.263Z,35.00
2018-05-09T18:35:56.499Z,35.90
2018-05-09T18:38:25.048Z,36.10
2018-05-09T18:40:53.412Z,36.10
2018-05-09T18:43:21.941Z,37.50
2018-05-09T18:45:50.307Z,37.40
2018-05-09T18:48:19.561Z,38.10
2018-05-09T18:50:47.956Z,38.10
2018-05-09T18:53:16.340Z,36.60
2018-05-09T18:55:45.195Z,37.40
2018-05-09T18:58:13.678Z,37.30
2018-05-09T19:00:42.045Z,37.80
2018-05-09T19:03:10.531Z,38.10
2018-05-09T19:05:39.033Z,38.10
2018-05-09T19:08:07.477Z,38.30
2018-05-09T19:10:35.919Z,38.50
2018-05-09T19:13:04.255Z,39.00
2018-05-09T19:15:32.940Z,39.40
2018-05-09T19:18:01.660Z,39.70
2018-05-09T19:20:30.456Z,39.80
2018-05-09T19:22:58.985Z,39.80
2018-05-09T19:25:28.161Z,39.80
2018-05-09T19:27:56.846Z,39.70
2018-05-09T19:30:26.131Z,40.50
2018-05-09T19:32:55.677Z,40.60
2018-05-09T19:35:24.274Z,40.60
2018-05-09T19:37:52.722Z,40.90
2018-05-09T19:40:21.217Z,41.10
2018-05-09T19:42:49.795Z,41.30
2018-05-09T19:45:18.184Z,41.50
2018-05-09T19:47:46.590Z,41.70
2018-05-09T19:50:15.309Z,42.10
2018-05-09T19:52:43.971Z,42.20
2018-05-09T19:55:12.436Z,42.40
2018-05-09T19:57:40.747Z,42.40
2018-05-09T20:00:09.836Z,42.60
2018-05-09T20:02:39.005Z,42.70
2018-05-09T20:05:07.435Z,42.70
2018-05-09T20:07:36.065Z,42.80
2018-05-09T20:10:04.423Z,43.10
2018-05-09T20:12:32.766Z,43.20
2018-05-09T20:15:01.271Z,43.00
2018-05-09T20:17:29.628Z,43.00
2018-05-09T20:19:58.052Z,43.00
2018-05-09T20:22:26.432Z,43.20
2018-05-09T20:24:54.942Z,43.30
2018-05-09T20:27:24.083Z,43.70
2018-05-09T20:29:52.483Z,43.90
2018-05-09T20:32:41.218Z,43.90
2018-05-09T20:35:09.788Z,43.80
2018-05-09T20:37:39.513Z,43.70
2018-05-09T20:40:07.880Z,43.80
2018-05-09T20:42:36.323Z,43.70
2018-05-09T20:45:04.701Z,43.70
2018-05-09T20:47:33.219Z,43.40
2018-05-09T20:50:01.608Z,43.90
2018-05-09T20:52:30.056Z,43.50
2018-05-09T20:54:58.366Z,43.70
2018-05-09T20:57:26.756Z,43.80
2018-05-09T20:59:55.098Z,44.60
2018-05-09T21:02:23.784Z,44.90
2018-05-09T21:04:52.204Z,45.50
2018-05-09T21:07:20.722Z,46.00
2018-05-09T21:09:49.117Z,46.50
2018-05-09T21:12:17.531Z,46.40
2018-05-09T21:14:47.533Z,46.40
2018-05-09T21:17:15.983Z,46.40
2018-05-09T21:19:44.466Z,46.50
2018-05-09T21:22:12.802Z,46.50
2018-05-09T21:24:42.006Z,47.00
2018-05-09T21:27:10.524Z,47.00
2018-05-09T21:29:38.843Z,46.70
2018-05-09T21:32:08.285Z,47.40
2018-05-09T21:34:36.696Z,47.40
2018-05-09T21:37:05.099Z,47.80
2018-05-09T21:39:34.347Z,48.40
2018-05-09T21:42:02.683Z,48.00
2018-05-09T21:44:31.841Z,48.40
2018-05-09T21:47:00.237Z,48.40
2018-05-09T21:49:28.596Z,48.30
2018-05-09T21:51:57.006Z,48.50
2018-05-09T21:54:26.138Z,49.40
2018-05-09T21:56:54.494Z,49.40
2018-05-09T21:59:23.078Z,49.60
2018-05-09T22:01:51.400Z,49.70
2018-05-09T22:04:19.713Z,49.60
2018-05-09T22:06:49.951Z,50.00
2018-05-09T22:09:18.406Z,50.00
2018-05-09T22:11:46.643Z,50.10
2018-05-09T22:14:15.022Z,50.00
2018-05-09T22:16:43.393Z,49.80
2018-05-09T22:19:11.754Z,49.80
2018-05-09T22:21:40.129Z,49.80
2018-05-09T22:24:08.473Z,50.00
2018-05-09T22:26:37.682Z,50.70
2018-05-09T22:29:06.077Z,50.70
2018-05-09T22:31:34.499Z,51.10
2018-05-09T22:34:03.593Z,52.90
2018-05-09T22:36:33.024Z,52.20
2018-05-09T22:39:01.477Z,52.10
2018-05-09T22:41:30.617Z,51.90
2018-05-09T22:43:59.001Z,51.80
2018-05-09T22:46:27.609Z,51.20
2018-05-09T22:48:55.978Z,50.60
2018-05-09T22:51:24.276Z,50.70
2018-05-09T22:53:52.643Z,50.90
2018-05-09T22:56:21.366Z,51.00
2018-05-09T22:58:50.531Z,51.40
2018-05-09T23:01:19.792Z,51.10
2018-05-09T23:03:48.126Z,51.10
2018-05-09T23:06:16.526Z,51.20
2018-05-09T23:08:45.971Z,49.80
2018-05-09T23:11:14.383Z,49.80
2018-05-09T23:13:44.186Z,50.70
2018-05-09T23:16:12.556Z,50.60
2018-05-09T23:18:40.862Z,51.00
2018-05-09T23:21:09.977Z,50.90
2018-05-09T23:23:39.151Z,50.90
2018-05-09T23:26:07.415Z,50.90
2018-05-09T23:28:35.731Z,50.80
2018-05-09T23:31:04.060Z,51.00
2018-05-09T23:33:32.382Z,50.90
2018-05-09T23:36:00.673Z,50.80
2018-05-09T23:38:28.973Z,51.20
2018-05-09T23:40:59.143Z,52.10
2018-05-09T23:43:27.502Z,52.00
2018-05-09T23:45:56.581Z,51.50
2018-05-09T23:48:25.631Z,51.30
2018-05-09T23:50:53.966Z,50.80
2018-05-09T23:53:23.055Z,50.30
2018-05-09T23:55:52.258Z,51.10
2018-05-09T23:58:21.221Z,50.60
